createdAt,value
2023-03-07T00:00:21.209Z,100310.31
2023-03-07T00:02:53.228Z,100299.75
2023-03-07T00:05:23.143Z,100305.16
2023-03-07T00:07:53.420Z,100303.13
2023-03-07T00:10:22.380Z,100305.88
2023-03-07T00:12:51.327Z,100307.78
2023-03-07T00:15:20.099Z,100302.78
2023-03-07T00:17:49.040Z,100304.06
2023-03-07T00:20:18.118Z,100304.00
2023-03-07T00:22:47.671Z,100282.81
2023-03-07T00:25:18.086Z,100279.78
2023-03-07T00:27:46.859Z,100298.88
2023-03-07T00:30:15.898Z,100291.53
2023-03-07T00:32:44.741Z,100289.22
2023-03-07T00:35:13.613Z,100290.16
2023-03-07T00:37:42.427Z,100296.41
2023-03-07T00:40:12.634Z,100302.13
2023-03-07T00:42:42.976Z,100301.28
2023-03-07T00:45:13.826Z,100298.31
2023-03-07T00:47:42.756Z,100293.69
2023-03-07T00:50:12.502Z,100298.00
2023-03-07T00:52:41.420Z,100296.63
2023-03-07T00:55:11.325Z,100293.88
2023-03-07T00:57:42.783Z,100292.50
2023-03-07T01:00:13.217Z,100297.66
2023-03-07T01:02:42.095Z,100296.28
2023-03-07T01:05:11.473Z,100302.69
2023-03-07T01:07:40.269Z,100304.59
2023-03-07T01:10:09.764Z,100290.84
2023-03-07T01:12:38.610Z,100314.03
2023-03-07T01:15:10.085Z,100302.75
2023-03-07T01:17:39.930Z,100307.78
2023-03-07T01:20:10.548Z,100298.50
2023-03-07T01:22:39.515Z,100296.44
2023-03-07T01:25:09.301Z,100297.56
2023-03-07T01:27:38.072Z,100305.16
2023-03-07T01:30:10.278Z,100297.16
2023-03-07T01:32:40.079Z,100292.38
2023-03-07T01:35:09.290Z,100284.16
2023-03-07T01:37:37.744Z,100279.81
2023-03-07T01:40:10.363Z,100289.75
2023-03-07T01:42:38.854Z,100284.47
2023-03-07T01:45:25.171Z,100281.19
2023-03-07T01:47:53.568Z,100275.94
2023-03-07T01:50:22.060Z,100269.47
2023-03-07T01:52:53.690Z,100276.16
2023-03-07T01:55:27.484Z,100273.44
2023-03-07T01:58:05.547Z,100271.50
2023-03-07T02:00:38.586Z,100267.16
2023-03-07T02:03:12.520Z,100267.25
2023-03-07T02:05:48.786Z,100268.31
2023-03-07T02:08:19.800Z,100261.34
2023-03-07T02:10:49.228Z,100265.66
2023-03-07T02:13:18.262Z,100256.25
2023-03-07T02:15:50.332Z,100254.66
2023-03-07T02:18:24.874Z,100245.84
2023-03-07T02:21:01.024Z,100247.53
2023-03-07T02:23:40.824Z,100247.44
2023-03-07T02:26:16.050Z,100248.09
2023-03-07T02:28:47.269Z,100247.63
2023-03-07T02:31:16.407Z,100254.00
2023-03-07T02:33:44.774Z,100243.31
2023-03-07T02:36:17.388Z,100233.44
2023-03-07T02:38:59.079Z,100225.75
2023-03-07T02:41:31.468Z,100234.22
2023-03-07T02:44:04.466Z,100235.50
2023-03-07T02:46:33.197Z,100239.06
2023-03-07T02:49:01.629Z,100228.00
2023-03-07T02:51:30.145Z,100222.25
2023-03-07T02:54:00.770Z,100218.41
2023-03-07T02:56:29.564Z,100223.66
2023-03-07T02:58:57.917Z,100224.97
2023-03-07T03:01:27.921Z,100233.34
2023-03-07T03:03:57.186Z,100231.56
2023-03-07T03:06:26.567Z,100221.13
2023-03-07T03:08:54.952Z,100226.28
2023-03-07T03:11:23.736Z,100231.28
2023-03-07T03:13:52.368Z,100225.91
2023-03-07T03:16:21.241Z,100220.00
2023-03-07T03:18:51.042Z,100213.81
2023-03-07T03:21:20.496Z,100209.94
2023-03-07T03:23:48.883Z,100198.28
2023-03-07T03:26:17.334Z,100209.47
2023-03-07T03:28:45.867Z,100206.25
2023-03-07T03:31:15.548Z,100211.03
2023-03-07T03:33:44.895Z,100212.34
2023-03-07T03:36:18.415Z,100201.25
2023-03-07T03:38:50.169Z,100206.84
2023-03-07T03:41:18.684Z,100216.59
2023-03-07T03:43:49.628Z,100214.16
2023-03-07T03:46:20.539Z,100207.88
2023-03-07T03:48:53.530Z,100207.03
2023-03-07T03:51:26.175Z,100196.06
2023-03-07T03:53:57.723Z,100213.59
2023-03-07T03:56:28.080Z,100217.22
2023-03-07T03:58:58.122Z,100217.91
2023-03-07T04:01:28.428Z,100221.47
2023-03-07T04:03:59.397Z,100206.91
2023-03-07T04:06:32.328Z,100191.47
2023-03-07T04:09:02.456Z,100235.25
2023-03-07T04:11:32.719Z,100229.72
2023-03-07T04:14:01.240Z,100219.19
2023-03-07T04:16:30.170Z,100219.78
2023-03-07T04:18:59.361Z,100167.09
2023-03-07T04:21:29.277Z,100227.00
2023-03-07T04:23:59.572Z,100226.22
2023-03-07T04:26:31.622Z,100226.06
2023-03-07T04:29:00.330Z,100216.66
2023-03-07T04:31:48.989Z,100204.88
2023-03-07T04:34:17.842Z,100210.72
2023-03-07T04:36:47.593Z,100208.78
2023-03-07T04:39:16.188Z,100201.91
2023-03-07T04:41:45.935Z,100213.53
2023-03-07T04:44:22.352Z,100205.91
2023-03-07T04:46:50.747Z,100199.72
2023-03-07T04:49:19.045Z,100204.59
2023-03-07T04:51:49.038Z,100204.75
2023-03-07T04:54:18.962Z,100204.06
2023-03-07T04:56:49.153Z,100196.03
2023-03-07T04:59:17.616Z,100194.88
2023-03-07T05:01:47.452Z,100190.81
2023-03-07T05:04:18.676Z,100181.75
2023-03-07T05:06:48.829Z,100192.47
2023-03-07T05:09:17.341Z,100190.16
2023-03-07T05:11:47.204Z,100190.34
2023-03-07T05:14:15.692Z,100184.22
2023-03-07T05:16:44.257Z,100172.69
2023-03-07T05:19:13.444Z,100175.66
2023-03-07T05:21:44.259Z,100166.19
2023-03-07T05:24:14.606Z,100159.06
2023-03-07T05:26:43.690Z,100165.06
2023-03-07T05:29:12.237Z,100164.75
2023-03-07T05:31:40.628Z,100160.94
2023-03-07T05:34:10.931Z,100162.63
2023-03-07T05:36:40.439Z,100164.31
2023-03-07T05:39:09.442Z,100158.06
2023-03-07T05:41:39.457Z,100147.16
2023-03-07T05:44:08.802Z,100165.00
2023-03-07T05:46:37.439Z,100176.94
2023-03-07T05:49:06.203Z,100185.31
2023-03-07T05:51:34.707Z,100188.19
2023-03-07T05:54:03.161Z,100191.06
2023-03-07T05:56:31.866Z,100195.63
2023-03-07T05:59:01.677Z,100194.09
2023-03-07T06:01:30.205Z,100196.31
2023-03-07T06:03:59.411Z,100187.69
2023-03-07T06:06:27.833Z,100190.31
2023-03-07T06:08:56.410Z,100194.53
2023-03-07T06:11:24.978Z,100186.84
2023-03-07T06:13:53.358Z,100189.03
2023-03-07T06:16:23.504Z,100197.13
2023-03-07T06:18:52.466Z,100206.84
2023-03-07T06:21:20.862Z,100213.28
2023-03-07T06:23:49.835Z,100210.91
2023-03-07T06:26:21.407Z,100218.34
2023-03-07T06:28:53.248Z,100236.69
2023-03-07T06:31:24.222Z,100228.59
2023-03-07T06:33:56.071Z,100232.75
2023-03-07T06:36:26.430Z,100228.69
2023-03-07T06:38:58.592Z,100229.28
2023-03-07T06:41:27.371Z,100213.91
2023-03-07T06:43:58.066Z,100218.72
2023-03-07T06:46:30.871Z,100226.09
2023-03-07T06:49:01.433Z,100222.22
2023-03-07T06:51:30.200Z,100210.94
2023-03-07T06:53:59.596Z,100212.47
2023-03-07T06:56:30.599Z,100217.97
2023-03-07T06:59:00.486Z,100214.78
2023-03-07T07:01:30.353Z,100225.13
2023-03-07T07:04:01.048Z,100227.06
2023-03-07T07:06:30.907Z,100231.50
2023-03-07T07:09:00.502Z,100220.91
2023-03-07T07:11:33.886Z,100212.28
2023-03-07T07:14:03.754Z,100209.56
2023-03-07T07:16:36.541Z,100202.75
2023-03-07T07:19:06.344Z,100195.56
2023-03-07T07:21:36.528Z,100213.06
2023-03-07T07:24:06.084Z,100205.38
2023-03-07T07:26:34.707Z,100206.59
2023-03-07T07:29:03.081Z,100203.75
2023-03-07T07:31:31.761Z,100210.19
2023-03-07T07:34:02.015Z,100214.19
2023-03-07T07:36:33.076Z,100214.78
2023-03-07T07:39:05.274Z,100222.03
2023-03-07T07:41:35.626Z,100231.47
2023-03-07T07:44:04.280Z,100223.06
2023-03-07T07:46:46.137Z,100213.16
2023-03-07T07:49:18.523Z,100201.13
2023-03-07T07:51:47.194Z,100208.09
2023-03-07T07:54:15.970Z,100211.47
2023-03-07T07:56:44.510Z,100213.41
2023-03-07T07:59:13.281Z,100198.09
2023-03-07T08:01:41.721Z,100210.09
2023-03-07T08:04:10.109Z,100204.34
2023-03-07T08:06:39.876Z,100211.56
2023-03-07T08:09:08.617Z,100212.00
2023-03-07T08:11:37.136Z,100210.34
2023-03-07T08:14:05.549Z,100225.09
2023-03-07T08:16:34.025Z,100223.69
2023-03-07T08:19:02.582Z,100221.72
2023-03-07T08:21:31.028Z,100216.06
2023-03-07T08:24:02.576Z,100218.06
2023-03-07T08:26:30.998Z,100216.56
2023-03-07T08:28:59.652Z,100213.09
2023-03-07T08:31:28.467Z,100216.00
2023-03-07T08:33:56.909Z,100204.53
2023-03-07T08:36:25.487Z,100200.91
2023-03-07T08:38:54.374Z,100201.34
2023-03-07T08:41:24.748Z,100197.53
2023-03-07T08:43:54.575Z,100195.59
2023-03-07T08:46:23.678Z,100196.28
2023-03-07T08:48:52.122Z,100205.13
2023-03-07T08:51:20.837Z,100201.81
2023-03-07T08:53:49.380Z,100206.44
2023-03-07T08:56:19.974Z,100203.25
2023-03-07T08:58:49.813Z,100201.00
2023-03-07T09:01:19.733Z,100194.75
2023-03-07T09:03:48.316Z,100190.19
2023-03-07T09:06:19.049Z,100186.16
2023-03-07T09:08:48.582Z,100181.00
2023-03-07T09:11:18.810Z,100183.91
2023-03-07T09:13:52.456Z,100170.47
2023-03-07T09:16:23.575Z,100140.94
2023-03-07T09:18:52.196Z,100171.59
2023-03-07T09:21:20.655Z,100170.19
2023-03-07T09:23:49.186Z,100162.34
2023-03-07T09:26:17.982Z,100153.50
2023-03-07T09:28:46.657Z,100142.13
2023-03-07T09:31:16.894Z,100121.66
2023-03-07T09:33:47.152Z,100121.06
2023-03-07T09:36:18.162Z,100131.09
2023-03-07T09:38:47.150Z,100126.72
2023-03-07T09:41:31.868Z,100127.97
2023-03-07T09:44:07.885Z,100118.41
2023-03-07T09:47:11.931Z,100101.59
2023-03-07T09:49:48.030Z,100109.03
2023-03-07T09:52:19.669Z,100119.09
2023-03-07T09:54:54.638Z,100125.88
2023-03-07T09:57:27.514Z,100092.97
2023-03-07T09:59:59.565Z,100102.50
2023-03-07T10:02:30.732Z,100101.91
2023-03-07T10:05:12.624Z,100132.03
2023-03-07T10:07:42.987Z,100134.41
2023-03-07T10:10:18.216Z,100136.03
2023-03-07T10:13:01.014Z,100123.44
2023-03-07T10:15:46.710Z,100118.16
2023-03-07T10:18:28.993Z,100111.91
2023-03-07T10:21:08.954Z,100096.91
2023-03-07T10:23:59.116Z,100098.56
2023-03-07T10:26:33.822Z,100096.63
2023-03-07T10:29:11.942Z,100091.81
2023-03-07T10:31:44.208Z,100077.38
2023-03-07T10:34:26.790Z,100067.47
2023-03-07T10:37:08.755Z,100063.53
2023-03-07T10:39:44.792Z,100073.94
2023-03-07T10:42:17.093Z,100059.13
2023-03-07T10:44:48.440Z,100063.50
2023-03-07T10:47:21.527Z,100057.69
2023-03-07T10:49:54.045Z,100052.09
2023-03-07T10:52:34.221Z,100057.97
2023-03-07T10:55:35.116Z,100052.13
2023-03-07T10:58:19.791Z,100047.63
2023-03-07T11:00:59.885Z,100053.81
2023-03-07T11:03:46.087Z,100049.28
2023-03-07T11:06:33.090Z,100054.81
2023-03-07T11:09:24.031Z,100068.53
2023-03-07T11:11:55.789Z,100061.16
2023-03-07T11:14:25.076Z,100045.75
2023-03-07T11:16:57.608Z,100046.25
2023-03-07T11:19:38.728Z,100039.75
2023-03-07T11:22:20.055Z,100046.09
2023-03-07T11:24:55.808Z,100049.28
2023-03-07T11:27:27.025Z,100046.88
2023-03-07T11:30:31.206Z,100050.56
2023-03-07T11:33:16.984Z,100054.06
2023-03-07T11:36:00.455Z,100044.69
2023-03-07T11:38:50.053Z,100049.38
2023-03-07T11:41:26.896Z,100053.22
2023-03-07T11:44:06.328Z,100054.22
2023-03-07T11:46:44.730Z,100042.50
2023-03-07T11:49:26.035Z,100046.31
2023-03-07T11:52:07.266Z,100044.59
2023-03-07T11:54:49.594Z,100040.16
2023-03-07T11:57:34.614Z,100029.56
2023-03-07T12:00:25.010Z,100026.88
2023-03-07T12:03:16.758Z,100029.41
2023-03-07T12:06:04.666Z,100027.56
2023-03-07T12:08:57.289Z,100024.97
2023-03-07T12:11:37.214Z,100011.09
2023-03-07T12:14:21.083Z,100004.91
2023-03-07T12:16:56.976Z,100005.63
2023-03-07T12:19:55.174Z,99992.38
2023-03-07T12:22:29.130Z,99989.53
2023-03-07T12:25:14.425Z,99985.84
2023-03-07T12:27:47.033Z,99992.56
2023-03-07T12:30:21.567Z,99990.53
2023-03-07T12:32:52.382Z,99959.75
2023-03-07T12:35:26.768Z,99989.16
2023-03-07T12:38:05.569Z,99990.50
2023-03-07T12:40:39.644Z,99981.22
2023-03-07T12:43:16.163Z,99982.53
2023-03-07T12:45:51.820Z,99990.25
2023-03-07T12:48:28.544Z,99984.41
2023-03-07T12:51:01.862Z,99986.97
2023-03-07T12:53:37.368Z,99982.50
2023-03-07T12:56:15.456Z,99956.13
2023-03-07T12:58:50.318Z,99984.41
2023-03-07T13:01:26.728Z,99980.97
2023-03-07T13:04:03.720Z,99974.28
2023-03-07T13:06:33.744Z,99975.28
2023-03-07T13:09:04.208Z,99938.84
2023-03-07T13:11:36.853Z,99956.22
2023-03-07T13:14:06.297Z,99956.38
2023-03-07T13:16:44.812Z,99921.28
2023-03-07T13:19:51.835Z,99962.44
2023-03-07T13:22:58.848Z,99956.63
2023-03-07T13:25:56.491Z,99962.34
2023-03-07T13:28:51.794Z,99958.50
2023-03-07T13:31:46.793Z,99956.53
2023-03-07T13:34:48.708Z,99948.19
2023-03-07T13:37:57.053Z,99950.03
2023-03-07T13:40:53.058Z,99947.84
2023-03-07T13:43:57.127Z,99959.72
2023-03-07T13:46:51.931Z,99971.56
2023-03-07T13:49:45.490Z,99966.69
2023-03-07T13:52:45.430Z,99979.41
2023-03-07T13:55:24.212Z,99992.81
2023-03-07T13:57:56.981Z,99998.84
2023-03-07T14:00:31.952Z,99999.22
2023-03-07T14:03:00.594Z,99997.38
2023-03-07T14:05:33.385Z,100009.22
2023-03-07T14:08:03.552Z,100010.91
2023-03-07T14:10:33.232Z,99995.84
2023-03-07T14:13:26.678Z,100000.16
2023-03-07T14:16:16.911Z,100003.00
2023-03-07T14:18:55.860Z,100002.50
2023-03-07T14:21:35.588Z,99999.13
2023-03-07T14:24:27.717Z,99995.97
2023-03-07T14:26:58.684Z,99968.75
2023-03-07T14:29:29.958Z,99994.47
2023-03-07T14:32:01.019Z,99995.78
2023-03-07T14:34:31.699Z,99987.09
2023-03-07T14:37:04.543Z,99999.31
2023-03-07T14:39:45.547Z,99994.31
2023-03-07T14:42:24.541Z,100000.34
2023-03-07T14:45:14.074Z,100005.59
2023-03-07T14:48:07.736Z,100001.75
2023-03-07T14:50:40.135Z,100009.44
2023-03-07T14:53:18.038Z,100009.94
2023-03-07T14:55:49.052Z,100013.97
2023-03-07T14:58:19.973Z,100023.88
2023-03-07T15:00:58.197Z,100026.72
2023-03-07T15:03:26.972Z,100024.72
2023-03-07T15:05:57.534Z,100020.19
2023-03-07T15:08:30.572Z,99986.91
2023-03-07T15:11:06.929Z,100015.03
2023-03-07T15:13:39.414Z,100000.66
2023-03-07T15:16:12.678Z,99997.97
2023-03-07T15:18:45.057Z,99993.28
2023-03-07T15:21:19.101Z,100001.47
2023-03-07T15:23:55.459Z,99993.63
2023-03-07T15:26:26.577Z,99989.25
2023-03-07T15:29:01.196Z,99992.09
2023-03-07T15:31:32.858Z,99990.94
2023-03-07T15:34:12.757Z,99984.94
2023-03-07T15:36:42.235Z,99978.75
2023-03-07T15:39:33.226Z,99977.25
2023-03-07T15:42:04.971Z,99983.94
2023-03-07T15:44:35.004Z,99990.28
2023-03-07T15:47:13.617Z,99992.78
2023-03-07T15:49:45.313Z,99989.94
2023-03-07T15:52:28.060Z,99996.47
2023-03-07T15:55:01.060Z,99990.28
2023-03-07T15:57:33.414Z,99992.94
2023-03-07T16:00:04.902Z,99993.47
2023-03-07T16:02:42.914Z,100002.31
2023-03-07T16:05:34.174Z,100005.00
2023-03-07T16:08:03.690Z,100001.47
2023-03-07T16:10:33.795Z,99995.81
2023-03-07T16:13:03.244Z,99999.97
2023-03-07T16:15:31.837Z,99991.75
2023-03-07T16:18:00.273Z,99990.59
2023-03-07T16:20:30.026Z,99993.94
2023-03-07T16:22:58.638Z,100000.13
2023-03-07T16:25:32.245Z,99991.09
2023-03-07T16:28:02.126Z,99960.34
2023-03-07T16:30:33.262Z,99982.41
2023-03-07T16:33:01.791Z,99985.78
2023-03-07T16:35:30.580Z,99986.28
2023-03-07T16:37:59.363Z,99979.25
2023-03-07T16:40:28.608Z,99993.94
2023-03-07T16:42:57.041Z,99999.63
2023-03-07T16:45:28.939Z,100007.81
2023-03-07T16:47:59.329Z,100011.97
2023-03-07T16:50:29.814Z,100016.66
2023-03-07T16:52:59.615Z,100016.13
2023-03-07T16:55:34.431Z,100017.31
2023-03-07T16:58:05.683Z,100022.13
2023-03-07T17:00:35.679Z,100026.13
2023-03-07T17:03:04.452Z,100029.97
2023-03-07T17:05:33.361Z,100030.13
2023-03-07T17:08:01.681Z,100033.28
2023-03-07T17:10:30.317Z,100037.78
2023-03-07T17:13:00.102Z,100043.47
2023-03-07T17:15:31.680Z,100053.63
2023-03-07T17:18:02.161Z,100052.63
2023-03-07T17:20:31.191Z,100046.78
2023-03-07T17:22:59.898Z,100059.66
2023-03-07T17:25:29.164Z,100055.63
2023-03-07T17:28:01.429Z,100032.66
2023-03-07T17:30:31.827Z,100045.72
2023-03-07T17:33:03.117Z,100053.59
2023-03-07T17:35:31.644Z,100056.75
2023-03-07T17:37:59.950Z,100055.53
2023-03-07T17:40:28.603Z,100063.88
2023-03-07T17:42:59.364Z,100062.53
2023-03-07T17:45:27.961Z,100072.53
2023-03-07T17:47:56.461Z,100081.50
2023-03-07T17:50:26.447Z,100087.59
2023-03-07T17:52:56.106Z,100096.00
2023-03-07T17:55:26.211Z,100099.56
2023-03-07T17:57:54.810Z,100104.28
2023-03-07T18:00:23.942Z,100111.31
2023-03-07T18:02:52.768Z,100118.31
2023-03-07T18:05:21.271Z,100115.50
2023-03-07T18:07:52.737Z,100119.91
2023-03-07T18:10:21.437Z,100113.84
2023-03-07T18:12:50.708Z,100127.72
2023-03-07T18:15:21.795Z,100118.19
2023-03-07T18:17:50.566Z,100126.34
2023-03-07T18:20:20.522Z,100105.44
2023-03-07T18:22:50.629Z,100137.06
2023-03-07T18:25:20.374Z,100130.63
2023-03-07T18:27:48.903Z,100136.06
2023-03-07T18:30:18.000Z,100135.22
2023-03-07T18:32:46.531Z,100131.47
2023-03-07T18:35:16.827Z,100142.56
2023-03-07T18:37:45.712Z,100146.28
2023-03-07T18:40:15.938Z,100144.66
2023-03-07T18:42:44.398Z,100153.09
2023-03-07T18:45:13.756Z,100151.72
2023-03-07T18:47:42.097Z,100160.75
2023-03-07T18:50:12.125Z,100157.97
2023-03-07T18:52:40.539Z,100158.84
2023-03-07T18:55:11.091Z,100165.63
2023-03-07T18:57:40.953Z,100121.56
2023-03-07T19:00:11.590Z,100189.88
2023-03-07T19:02:40.305Z,100172.66
2023-03-07T19:05:11.653Z,100186.09
2023-03-07T19:07:41.700Z,100189.47
2023-03-07T19:10:11.594Z,100183.31
2023-03-07T19:12:42.453Z,100184.28
2023-03-07T19:15:11.618Z,100184.44
2023-03-07T19:17:41.211Z,100188.50
2023-03-07T19:20:11.019Z,100188.41
2023-03-07T19:22:40.426Z,100183.66
2023-03-07T19:25:11.037Z,100191.63
2023-03-07T19:27:39.980Z,100197.66
2023-03-07T19:30:12.762Z,100195.25
2023-03-07T19:32:41.266Z,100194.41
2023-03-07T19:35:10.130Z,100204.31
2023-03-07T19:37:38.590Z,100215.22
2023-03-07T19:40:08.719Z,100231.44
2023-03-07T19:42:37.113Z,100223.81
2023-03-07T19:45:07.226Z,100236.72
2023-03-07T19:47:37.085Z,100241.50
2023-03-07T19:50:06.043Z,100240.34
2023-03-07T19:52:34.355Z,100235.97
2023-03-07T19:55:02.730Z,100240.16
2023-03-07T19:57:31.093Z,100250.72
2023-03-07T19:59:59.477Z,100128.47
2023-03-07T20:02:29.544Z,100254.09
2023-03-07T20:05:00.267Z,100261.72
2023-03-07T20:07:28.816Z,100249.13
2023-03-07T20:09:57.350Z,100246.31
2023-03-07T20:12:25.754Z,100271.94
2023-03-07T20:14:54.222Z,100268.69
2023-03-07T20:17:22.664Z,100274.59
2023-03-07T20:19:53.056Z,100274.75
2023-03-07T20:22:23.661Z,100295.50
2023-03-07T20:24:52.742Z,100290.75
2023-03-07T20:27:23.603Z,100285.72
2023-03-07T20:29:52.380Z,100291.56
2023-03-07T20:32:21.093Z,100285.97
2023-03-07T20:34:52.672Z,100285.56
2023-03-07T20:37:22.542Z,100288.75
2023-03-07T20:39:51.013Z,100284.81
2023-03-07T20:42:20.421Z,100288.19
2023-03-07T20:44:49.741Z,100285.25
2023-03-07T20:47:18.123Z,100292.41
2023-03-07T20:49:47.839Z,100297.13
2023-03-07T20:52:16.807Z,100294.44
2023-03-07T20:54:47.059Z,100302.00
2023-03-07T20:57:15.636Z,100297.53
2023-03-07T20:59:44.077Z,100306.34
2023-03-07T21:02:12.533Z,100297.78
2023-03-07T21:04:40.862Z,100306.78
2023-03-07T21:07:09.438Z,100307.84
2023-03-07T21:09:37.962Z,100311.34
2023-03-07T21:12:08.733Z,100305.72
2023-03-07T21:14:37.200Z,100310.06
2023-03-07T21:17:06.059Z,100305.06
2023-03-07T21:19:34.514Z,100297.09
2023-03-07T21:22:03.250Z,100293.47
2023-03-07T21:24:31.651Z,100295.72
2023-03-07T21:27:00.412Z,100290.16
2023-03-07T21:29:31.263Z,100298.84
2023-03-07T21:31:59.736Z,100297.75
2023-03-07T21:34:28.050Z,100291.47
2023-03-07T21:36:57.118Z,100295.34
2023-03-07T21:39:25.809Z,100290.53
2023-03-07T21:41:54.659Z,100300.72
2023-03-07T21:44:23.171Z,100286.69
2023-03-07T21:46:53.573Z,100279.59
2023-03-07T21:49:21.915Z,100279.00
2023-03-07T21:51:50.322Z,100273.91
2023-03-07T21:54:18.925Z,100272.94
2023-03-07T21:56:47.336Z,100281.88
2023-03-07T21:59:15.685Z,100285.13
2023-03-07T22:01:44.044Z,100283.25
2023-03-07T22:04:14.016Z,100280.38
2023-03-07T22:06:42.462Z,100289.06
2023-03-07T22:09:10.872Z,100294.41
2023-03-07T22:11:40.306Z,100303.66
2023-03-07T22:14:08.773Z,100312.22
2023-03-07T22:16:37.259Z,100316.91
2023-03-07T22:19:05.796Z,100305.59
2023-03-07T22:21:35.724Z,100299.22
2023-03-07T22:24:04.132Z,100304.53
2023-03-07T22:26:33.402Z,100299.69
2023-03-07T22:29:02.838Z,100299.00
2023-03-07T22:31:31.552Z,100305.38
2023-03-07T22:34:01.054Z,100316.56
2023-03-07T22:36:29.504Z,100308.44
2023-03-07T22:38:59.302Z,100313.88
2023-03-07T22:41:28.414Z,100304.25
2023-03-07T22:43:56.851Z,100309.75
2023-03-07T22:46:25.363Z,100306.66
2023-03-07T22:48:54.986Z,100311.38
2023-03-07T22:51:24.871Z,100302.59
2023-03-07T22:53:53.734Z,100303.28
2023-03-07T22:56:25.165Z,100298.34
2023-03-07T22:58:53.541Z,100298.53
2023-03-07T23:01:23.998Z,100298.31
2023-03-07T23:03:54.598Z,100269.03
2023-03-07T23:06:24.289Z,100305.63
2023-03-07T23:08:54.450Z,100310.56
2023-03-07T23:11:25.784Z,100302.47
2023-03-07T23:13:55.126Z,100316.16
2023-03-07T23:16:26.914Z,100313.97
2023-03-07T23:18:58.413Z,100311.81
2023-03-07T23:21:29.173Z,100305.34
2023-03-07T23:23:58.124Z,100297.97
2023-03-07T23:26:30.166Z,100282.56
2023-03-07T23:28:58.809Z,100279.69
2023-03-07T23:31:29.404Z,100217.13
2023-03-07T23:33:58.686Z,100293.22
2023-03-07T23:36:29.073Z,100271.00
2023-03-07T23:38:58.044Z,100288.75
2023-03-07T23:41:28.711Z,100282.53
2023-03-07T23:43:59.213Z,100282.75
2023-03-07T23:46:28.610Z,100294.56
2023-03-07T23:48:57.829Z,100299.00
2023-03-07T23:51:26.449Z,100300.38
2023-03-07T23:53:54.925Z,100294.22
2023-03-07T23:56:23.375Z,100296.47
2023-03-07T23:58:53.401Z,100286.13
